createdAt,value
2022-08-04T00:01:46.971Z,3.05
2022-08-04T00:04:17.256Z,3.53
2022-08-04T00:06:50.880Z,3.20
2022-08-04T00:09:27.171Z,3.72
2022-08-04T00:11:58.151Z,3.55
2022-08-04T00:14:26.101Z,3.23
2022-08-04T00:16:54.844Z,3.22
2022-08-04T00:19:27.761Z,3.17
2022-08-04T00:21:57.228Z,3.63
2022-08-04T00:24:25.293Z,3.67
2022-08-04T00:26:54.290Z,3.50
2022-08-04T00:29:23.122Z,3.40
2022-08-04T00:31:56.575Z,3.40
2022-08-04T00:34:25.884Z,4.22
2022-08-04T00:36:56.229Z,3.30
2022-08-04T00:39:24.424Z,3.50
2022-08-04T00:41:56.339Z,4.05
2022-08-04T00:44:31.701Z,3.40
2022-08-04T00:47:07.888Z,3.17
2022-08-04T00:49:38.565Z,3.60
2022-08-04T00:52:31.805Z,3.30
2022-08-04T00:55:02.455Z,3.53
2022-08-04T00:57:34.520Z,3.42
2022-08-04T01:00:02.503Z,3.38
2022-08-04T01:02:30.099Z,3.58
2022-08-04T01:05:02.390Z,3.28
2022-08-04T01:07:32.906Z,3.38
2022-08-04T01:10:07.762Z,3.17
2022-08-04T01:12:54.061Z,2.92
2022-08-04T01:15:27.734Z,3.25
2022-08-04T01:18:08.402Z,2.97
2022-08-04T01:20:42.940Z,3.20
2022-08-04T01:23:10.558Z,3.03
2022-08-04T01:25:58.566Z,3.10
2022-08-04T01:28:34.189Z,3.05
2022-08-04T01:31:07.906Z,3.10
2022-08-04T01:34:03.329Z,3.00
2022-08-04T01:36:33.892Z,3.30
2022-08-04T01:39:21.772Z,2.97
2022-08-04T01:41:57.993Z,3.30
2022-08-04T01:44:29.678Z,3.40
2022-08-04T01:46:57.373Z,2.90
2022-08-04T01:49:29.005Z,3.10
2022-08-04T01:52:00.861Z,3.33
2022-08-04T01:54:31.256Z,2.95
2022-08-04T01:57:00.625Z,2.65
2022-08-04T01:59:48.521Z,2.90
2022-08-04T02:02:16.307Z,3.08
2022-08-04T02:04:45.036Z,2.90
2022-08-04T02:07:18.707Z,3.15
2022-08-04T02:09:58.507Z,2.75
2022-08-04T02:12:32.251Z,3.13
2022-08-04T02:14:59.884Z,2.58
2022-08-04T02:17:53.032Z,3.03
2022-08-04T02:22:57.785Z,3.08
2022-08-04T02:25:26.734Z,3.22
2022-08-04T02:28:09.153Z,3.45
2022-08-04T02:30:44.235Z,2.72
2022-08-04T02:33:14.270Z,2.90
2022-08-04T02:35:41.947Z,2.83
2022-08-04T02:38:17.260Z,3.15
2022-08-04T02:40:58.867Z,3.17
2022-08-04T02:43:51.787Z,3.13
2022-08-04T02:46:18.707Z,2.83
2022-08-04T02:48:47.725Z,3.25
2022-08-04T02:51:17.304Z,3.03
2022-08-04T02:53:46.279Z,3.28
2022-08-04T02:56:16.314Z,3.30
2022-08-04T02:58:47.174Z,3.78
2022-08-04T03:01:14.834Z,3.30
2022-08-04T03:03:54.805Z,3.47
2022-08-04T03:06:41.217Z,3.10
2022-08-04T03:09:14.654Z,3.00
2022-08-04T03:11:51.408Z,3.22
2022-08-04T03:14:22.078Z,3.05
2022-08-04T03:17:01.709Z,3.35
2022-08-04T03:19:35.208Z,3.10
2022-08-04T03:22:18.878Z,3.05
2022-08-04T03:24:52.284Z,3.10
2022-08-04T03:27:25.984Z,3.22
2022-08-04T03:29:59.638Z,2.60
2022-08-04T03:32:30.308Z,2.55
2022-08-04T03:35:04.148Z,2.75
2022-08-04T03:37:31.721Z,2.97
2022-08-04T03:40:28.810Z,3.10
2022-08-04T03:42:59.241Z,2.70
2022-08-04T03:45:45.288Z,2.50
2022-08-04T03:48:22.002Z,2.47
2022-08-04T03:51:09.621Z,2.70
2022-08-04T03:54:07.614Z,3.05
2022-08-04T03:56:49.816Z,2.75
2022-08-04T03:59:36.247Z,3.17
2022-08-04T04:02:18.853Z,2.75
2022-08-04T04:05:00.937Z,2.90
2022-08-04T04:07:47.530Z,2.72
2022-08-04T04:10:36.912Z,2.63
2022-08-04T04:13:19.617Z,3.15
2022-08-04T04:15:53.346Z,3.00
2022-08-04T04:18:21.001Z,3.30
2022-08-04T04:21:01.356Z,3.67
2022-08-04T04:23:39.186Z,3.13
2022-08-04T04:26:15.897Z,3.42
2022-08-04T04:29:03.530Z,3.15
2022-08-04T04:31:38.832Z,3.20
2022-08-04T04:34:09.834Z,3.80
2022-08-04T04:36:46.532Z,3.90
2022-08-04T04:39:17.456Z,3.78
2022-08-04T04:42:00.217Z,3.45
2022-08-04T04:44:39.210Z,4.22
2022-08-04T04:47:09.849Z,4.38
2022-08-04T04:49:52.746Z,3.80
2022-08-04T04:52:39.155Z,3.72
2022-08-04T04:55:23.404Z,3.88
2022-08-04T04:57:54.731Z,3.58
2022-08-04T05:00:24.799Z,3.78
2022-08-04T05:03:04.887Z,3.63
2022-08-04T05:05:54.658Z,4.05
2022-08-04T05:08:44.355Z,3.70
2022-08-04T05:11:17.868Z,3.55
2022-08-04T05:14:36.438Z,3.80
2022-08-04T05:16:45.810Z,3.92
2022-08-04T05:19:13.436Z,4.28
2022-08-04T05:21:44.137Z,3.85
2022-08-04T05:24:14.782Z,3.60
2022-08-04T05:26:45.109Z,3.28
2022-08-04T05:29:17.541Z,3.45
2022-08-04T05:31:50.596Z,3.40
2022-08-04T05:34:22.999Z,4.20
2022-08-04T05:36:52.610Z,3.92
2022-08-04T05:39:25.756Z,4.20
2022-08-04T05:41:55.367Z,4.35
2022-08-04T05:44:26.933Z,4.07
2022-08-04T05:46:57.960Z,3.40
2022-08-04T05:49:26.882Z,3.60
2022-08-04T05:51:55.982Z,3.65
2022-08-04T05:54:25.293Z,3.65
2022-08-04T05:56:55.003Z,3.53
2022-08-04T05:59:25.772Z,3.72
2022-08-04T06:01:57.940Z,3.50
2022-08-04T06:04:28.800Z,3.67
2022-08-04T06:06:56.619Z,3.47
2022-08-04T06:09:24.330Z,3.55
2022-08-04T06:12:00.488Z,3.17
2022-08-04T06:14:36.497Z,3.40
2022-08-04T06:17:06.338Z,3.88
2022-08-04T06:19:59.941Z,3.33
2022-08-04T06:22:43.795Z,3.83
2022-08-04T06:25:12.782Z,3.30
2022-08-04T06:27:41.661Z,3.42
2022-08-04T06:30:14.243Z,2.97
2022-08-04T06:32:48.526Z,3.40
2022-08-04T06:35:17.933Z,3.05
2022-08-04T06:37:46.906Z,3.50
2022-08-04T06:40:31.569Z,3.17
2022-08-04T06:43:01.757Z,3.00
2022-08-04T06:45:29.773Z,3.28
2022-08-04T06:47:58.099Z,3.05
2022-08-04T06:51:28.746Z,3.33
2022-08-04T06:53:13.544Z,3.25
2022-08-04T06:55:42.100Z,2.75
2022-08-04T06:58:10.908Z,3.08
2022-08-04T07:00:39.752Z,2.83
2022-08-04T07:03:07.786Z,3.15
2022-08-04T07:05:35.951Z,3.00
2022-08-04T07:08:04.678Z,3.40
2022-08-04T07:10:32.622Z,3.33
2022-08-04T07:13:01.624Z,3.45
2022-08-04T07:15:29.714Z,3.45
2022-08-04T07:18:01.450Z,3.20
2022-08-04T07:23:01.766Z,3.67
2022-08-04T07:25:59.094Z,3.28
2022-08-04T07:28:17.134Z,3.65
2022-08-04T07:30:45.535Z,3.88
2022-08-04T07:33:13.454Z,3.65
2022-08-04T07:36:09.480Z,2.97
2022-08-04T07:38:29.128Z,3.33
2022-08-04T07:40:57.329Z,3.13
2022-08-04T07:43:25.145Z,3.28
2022-08-04T07:45:52.804Z,2.90
2022-08-04T07:48:22.662Z,3.05
2022-08-04T07:50:51.077Z,3.20
2022-08-04T07:53:54.793Z,3.30
2022-08-04T07:56:07.076Z,2.88
2022-08-04T07:58:34.831Z,2.60
2022-08-04T08:01:02.666Z,2.50
2022-08-04T08:03:30.889Z,2.53
2022-08-04T08:06:31.451Z,2.92
2022-08-04T08:08:46.242Z,2.70
2022-08-04T08:11:13.994Z,2.40
2022-08-04T08:13:41.629Z,2.83
2022-08-04T08:16:09.285Z,2.80
2022-08-04T08:18:37.045Z,2.58
2022-08-04T08:21:05.093Z,2.83
2022-08-04T08:23:35.018Z,2.58
2022-08-04T08:26:02.747Z,2.90
2022-08-04T08:28:30.446Z,3.05
2022-08-04T08:30:59.059Z,3.72
2022-08-04T08:33:27.765Z,2.80
2022-08-04T08:36:01.174Z,2.72
2022-08-04T08:39:04.568Z,2.90
2022-08-04T08:41:51.932Z,3.08
2022-08-04T08:44:58.334Z,3.13
2022-08-04T08:48:05.023Z,2.67
2022-08-04T08:50:46.917Z,2.83
2022-08-04T08:53:20.367Z,3.17
2022-08-04T08:56:00.013Z,2.90
2022-08-04T08:58:36.149Z,2.70
2022-08-04T09:01:08.085Z,2.33
2022-08-04T09:03:48.227Z,2.13
2022-08-04T09:06:18.934Z,2.38
2022-08-04T09:09:07.242Z,2.40
2022-08-04T09:11:41.172Z,3.38
2022-08-04T09:14:08.907Z,5.10
2022-08-04T09:16:54.361Z,4.00
2022-08-04T09:19:42.237Z,3.55
2022-08-04T09:22:26.037Z,3.50
2022-08-04T09:25:14.331Z,3.08
2022-08-04T09:27:41.965Z,2.92
2022-08-04T09:30:11.458Z,3.03
2022-08-04T09:32:39.070Z,2.80
2022-08-04T09:35:25.350Z,2.97
2022-08-04T09:38:01.430Z,2.45
2022-08-04T09:40:53.657Z,2.60
2022-08-04T09:44:42.016Z,2.45
2022-08-04T09:46:24.169Z,2.50
2022-08-04T09:48:54.178Z,2.73
2022-08-04T09:51:26.321Z,2.65
2022-08-04T09:54:29.251Z,2.80
2022-08-04T09:57:05.158Z,2.80
2022-08-04T09:59:35.815Z,3.97
2022-08-04T10:02:08.468Z,2.70
2022-08-04T10:04:38.294Z,3.05
2022-08-04T10:07:24.683Z,2.85
2022-08-04T10:10:13.239Z,2.90
2022-08-04T10:12:50.210Z,3.15
2022-08-04T10:15:20.320Z,2.70
2022-08-04T10:18:06.445Z,3.08
2022-08-04T10:20:44.913Z,2.88
2022-08-04T10:23:56.058Z,2.58
2022-08-04T10:26:20.693Z,2.50
2022-08-04T10:28:54.342Z,2.70
2022-08-04T10:31:25.642Z,2.20
2022-08-04T10:34:02.533Z,2.63
2022-08-04T10:36:33.191Z,2.90
2022-08-04T10:39:00.844Z,2.97
2022-08-04T10:41:34.050Z,2.55
2022-08-04T10:44:24.549Z,2.90
2022-08-04T10:46:55.198Z,2.97
2022-08-04T10:49:24.486Z,2.78
2022-08-04T10:51:58.227Z,3.05
2022-08-04T10:54:33.689Z,2.90
2022-08-04T10:57:23.917Z,2.92
2022-08-04T11:00:03.829Z,3.03
2022-08-04T11:02:47.292Z,3.30
2022-08-04T11:05:15.563Z,2.78
2022-08-04T11:07:44.928Z,2.92
2022-08-04T11:10:13.551Z,2.58
2022-08-04T11:12:43.119Z,2.83
2022-08-04T11:15:19.535Z,2.90
2022-08-04T11:18:17.275Z,3.10
2022-08-04T11:20:57.482Z,3.13
2022-08-04T11:23:28.398Z,2.90
2022-08-04T11:25:55.999Z,2.97
2022-08-04T11:28:42.455Z,2.97
2022-08-04T11:31:15.141Z,2.80
2022-08-04T11:34:01.715Z,2.85
2022-08-04T11:36:40.707Z,2.70
2022-08-04T11:39:09.910Z,2.67
2022-08-04T11:41:56.300Z,2.75
2022-08-04T11:44:32.506Z,2.58
2022-08-04T11:47:03.375Z,3.08
2022-08-04T11:49:31.006Z,2.13
2022-08-04T11:52:00.626Z,2.83
2022-08-04T11:54:28.569Z,2.30
2022-08-04T11:56:56.483Z,2.03
2022-08-04T11:59:25.247Z,2.50
2022-08-04T12:02:01.949Z,2.55
2022-08-04T12:04:41.366Z,2.60
2022-08-04T12:10:10.320Z,2.30
2022-08-04T12:12:44.021Z,2.25
2022-08-04T12:15:15.642Z,2.40
2022-08-04T12:20:31.826Z,3.42
2022-08-04T12:23:10.161Z,2.70
2022-08-04T12:25:44.945Z,2.58
2022-08-04T12:28:16.569Z,2.83
2022-08-04T12:30:59.637Z,2.90
2022-08-04T12:34:05.069Z,2.50
2022-08-04T12:36:39.864Z,2.47
2022-08-04T12:39:11.153Z,2.50
2022-08-04T12:41:58.294Z,2.72
2022-08-04T12:44:36.656Z,2.58
2022-08-04T12:47:27.841Z,2.67
2022-08-04T12:50:01.336Z,2.72
2022-08-04T12:53:01.036Z,2.97
2022-08-04T12:55:18.703Z,2.58
2022-08-04T12:57:47.593Z,2.65
2022-08-04T13:00:29.386Z,2.40
2022-08-04T13:03:01.832Z,2.65
2022-08-04T13:05:31.266Z,2.60
2022-08-04T13:07:59.325Z,2.53
2022-08-04T13:10:30.308Z,2.65
2022-08-04T13:12:59.730Z,3.00
2022-08-04T13:15:29.186Z,2.83
2022-08-04T13:18:03.635Z,2.17
2022-08-04T13:20:32.683Z,2.78
2022-08-04T13:23:01.501Z,2.67
2022-08-04T13:26:44.450Z,2.70
2022-08-04T13:28:18.235Z,3.17
2022-08-04T13:30:47.263Z,2.58
2022-08-04T13:33:16.648Z,2.72
2022-08-04T13:35:56.096Z,2.50
2022-08-04T13:38:25.227Z,3.00
2022-08-04T13:40:53.558Z,2.97
2022-08-04T13:44:15.741Z,2.60
2022-08-04T13:46:33.070Z,2.30
2022-08-04T13:51:57.563Z,2.47
2022-08-04T13:54:42.960Z,2.90
2022-08-04T13:57:19.929Z,2.97
2022-08-04T13:59:49.915Z,2.88
2022-08-04T14:02:29.161Z,2.47
2022-08-04T14:04:58.317Z,2.60
2022-08-04T14:07:26.931Z,2.60
2022-08-04T14:10:03.922Z,2.72
2022-08-04T14:12:45.336Z,2.67
2022-08-04T14:15:54.745Z,3.10
2022-08-04T14:18:32.362Z,2.40
2022-08-04T14:21:04.774Z,2.35
2022-08-04T14:23:47.170Z,2.65
2022-08-04T14:26:34.480Z,2.65
2022-08-04T14:29:27.628Z,2.70
2022-08-04T14:32:10.619Z,2.47
2022-08-04T14:34:45.303Z,2.40
2022-08-04T14:37:20.377Z,2.90
2022-08-04T14:40:07.874Z,2.80
2022-08-04T14:42:54.949Z,2.85
2022-08-04T14:45:33.115Z,2.30
2022-08-04T14:48:01.917Z,2.92
2022-08-04T14:50:42.994Z,2.67
2022-08-04T14:53:12.313Z,2.85
2022-08-04T14:55:41.090Z,2.97
2022-08-04T14:58:36.110Z,2.70
2022-08-04T15:01:10.676Z,2.88
2022-08-04T15:03:48.309Z,3.00
2022-08-04T15:06:22.204Z,2.40
2022-08-04T15:08:51.325Z,2.45
2022-08-04T15:11:23.470Z,2.40
2022-08-04T15:13:52.472Z,2.40
2022-08-04T15:16:20.952Z,2.55
2022-08-04T15:18:49.445Z,3.05
2022-08-04T15:21:17.705Z,2.80
2022-08-04T15:23:45.398Z,2.50
2022-08-04T15:26:14.129Z,2.70
2022-08-04T15:28:43.132Z,2.60
2022-08-04T15:32:06.621Z,3.45
2022-08-04T15:33:59.182Z,2.63
2022-08-04T15:36:43.413Z,3.00
2022-08-04T15:39:16.654Z,2.58
2022-08-04T15:41:55.222Z,2.10
2022-08-04T15:44:36.573Z,2.50
2022-08-04T15:47:04.162Z,2.57
2022-08-04T15:49:31.888Z,2.40
2022-08-04T15:52:03.749Z,2.35
2022-08-04T15:54:42.470Z,2.28
2022-08-04T15:57:40.492Z,2.50
2022-08-04T16:00:12.795Z,2.22
2022-08-04T16:02:43.679Z,2.40
2022-08-04T16:05:17.281Z,2.08
2022-08-04T16:07:57.162Z,2.00
2022-08-04T16:10:30.928Z,1.92
2022-08-04T16:13:00.378Z,2.25
2022-08-04T16:15:43.723Z,1.92
2022-08-04T16:18:26.054Z,2.03
2022-08-04T16:21:05.910Z,2.10
2022-08-04T16:23:53.477Z,2.03
2022-08-04T16:26:45.259Z,2.50
2022-08-04T16:29:26.825Z,2.10
2022-08-04T16:32:12.649Z,2.20
2022-08-04T16:34:54.794Z,2.13
2022-08-04T16:37:24.464Z,2.00
2022-08-04T16:40:12.057Z,2.10
2022-08-04T16:42:39.839Z,2.50
2022-08-04T16:45:12.004Z,2.38
2022-08-04T16:47:48.917Z,2.20
2022-08-04T16:50:17.438Z,2.03
2022-08-04T16:52:45.808Z,2.20
2022-08-04T16:55:15.974Z,2.20
2022-08-04T16:57:47.141Z,2.30
2022-08-04T17:00:15.187Z,2.20
2022-08-04T17:02:43.807Z,2.35
2022-08-04T17:05:38.174Z,2.20
2022-08-04T17:08:28.680Z,1.95
2022-08-04T17:10:54.748Z,2.30
2022-08-04T17:14:02.675Z,2.47
2022-08-04T17:16:17.901Z,2.53
2022-08-04T17:18:50.873Z,2.05
2022-08-04T17:21:20.707Z,2.05
2022-08-04T17:24:15.708Z,2.42
2022-08-04T17:26:41.465Z,2.00
2022-08-04T17:29:09.606Z,2.22
2022-08-04T17:31:38.505Z,2.65
2022-08-04T17:34:16.770Z,2.17
2022-08-04T17:36:47.966Z,2.42
2022-08-04T17:39:19.488Z,2.22
2022-08-04T17:44:17.871Z,2.40
2022-08-04T17:46:48.549Z,2.35
2022-08-04T17:49:17.030Z,2.20
2022-08-04T17:52:05.047Z,2.30
2022-08-04T17:54:36.758Z,2.22
2022-08-04T17:57:19.394Z,2.63
2022-08-04T17:59:59.212Z,2.30
2022-08-04T18:02:32.283Z,2.35
2022-08-04T18:05:07.033Z,2.58
2022-08-04T18:08:42.944Z,2.75
2022-08-04T18:15:44.350Z,2.60
2022-08-04T18:18:20.799Z,3.40
2022-08-04T18:20:50.651Z,10.95
2022-08-04T18:23:19.020Z,8.15
2022-08-04T18:25:59.230Z,5.88
2022-08-04T18:28:30.728Z,4.45
2022-08-04T18:31:01.334Z,4.03
2022-08-04T18:33:40.575Z,3.20
2022-08-04T18:36:36.973Z,3.63
2022-08-04T18:39:12.656Z,3.03
2022-08-04T18:42:02.110Z,3.17
2022-08-04T18:44:29.324Z,2.58
2022-08-04T18:46:57.812Z,2.80
2022-08-04T18:51:00.289Z,2.65
2022-08-04T18:52:33.411Z,2.72
2022-08-04T18:55:01.883Z,3.15
2022-08-04T18:58:00.968Z,2.95
2022-08-04T19:00:21.283Z,2.70
2022-08-04T19:02:48.905Z,6.22
2022-08-04T19:05:19.423Z,2.65
2022-08-04T19:08:01.438Z,2.97
2022-08-04T19:10:30.378Z,3.95
2022-08-04T19:12:59.649Z,3.20
2022-08-04T19:15:34.417Z,2.72
2022-08-04T19:18:02.820Z,2.65
2022-08-04T19:20:39.534Z,3.33
2022-08-04T19:24:29.658Z,3.20
2022-08-04T19:25:59.112Z,4.28
2022-08-04T19:28:34.837Z,3.60
2022-08-04T19:31:06.902Z,3.55
2022-08-04T19:33:58.898Z,3.38
2022-08-04T19:36:27.894Z,3.20
2022-08-04T19:38:57.471Z,3.10
2022-08-04T19:41:26.530Z,3.25
2022-08-04T19:43:55.236Z,3.45
2022-08-04T19:46:24.722Z,3.35
2022-08-04T19:48:58.929Z,3.83
2022-08-04T19:51:28.045Z,4.07
2022-08-04T19:54:02.947Z,3.63
2022-08-04T19:56:40.739Z,4.15
2022-08-04T19:59:10.239Z,3.80
2022-08-04T20:01:44.807Z,4.05
2022-08-04T20:04:25.565Z,3.65
2022-08-04T20:06:54.213Z,3.20
2022-08-04T20:09:25.289Z,3.63
2022-08-04T20:11:55.322Z,3.83
2022-08-04T20:14:31.399Z,4.00
2022-08-04T20:19:51.895Z,4.60
2022-08-04T20:22:51.945Z,3.80
2022-08-04T20:25:27.309Z,3.72
2022-08-04T20:28:00.662Z,3.50
2022-08-04T20:30:30.043Z,3.45
2022-08-04T20:33:00.001Z,3.50
2022-08-04T20:35:27.998Z,4.28
2022-08-04T20:38:00.311Z,4.18
2022-08-04T20:40:29.995Z,4.03
2022-08-04T20:43:00.145Z,3.50
2022-08-04T20:45:55.895Z,3.28
2022-08-04T20:48:15.605Z,3.22
2022-08-04T20:50:46.073Z,2.75
2022-08-04T20:53:16.775Z,3.35
2022-08-04T20:55:55.179Z,3.28
2022-08-04T20:58:27.375Z,3.05
2022-08-04T21:00:57.263Z,3.03
2022-08-04T21:03:49.938Z,2.78
2022-08-04T21:06:12.548Z,2.80
2022-08-04T21:08:40.202Z,2.78
2022-08-04T21:11:09.011Z,2.45
2022-08-04T21:13:50.795Z,2.55
2022-08-04T21:16:53.918Z,2.35
2022-08-04T21:21:56.125Z,2.88
2022-08-04T21:24:26.048Z,2.60
2022-08-04T21:26:56.588Z,2.58
2022-08-04T21:29:34.621Z,2.60
2022-08-04T21:32:07.641Z,2.45
2022-08-04T21:34:39.207Z,2.67
2022-08-04T21:37:10.230Z,2.92
2022-08-04T21:42:29.073Z,2.67
2022-08-04T21:44:58.387Z,3.08
2022-08-04T21:47:26.059Z,2.50
2022-08-04T21:50:13.718Z,2.70
2022-08-04T21:52:49.106Z,2.67
2022-08-04T21:55:17.758Z,3.13
2022-08-04T21:57:46.891Z,2.90
2022-08-04T22:00:18.420Z,2.67
2022-08-04T22:02:53.419Z,2.85
2022-08-04T22:05:21.893Z,2.70
2022-08-04T22:07:51.518Z,2.50
2022-08-04T22:10:32.048Z,2.80
2022-08-04T22:13:00.136Z,2.63
2022-08-04T22:16:04.837Z,2.78
2022-08-04T22:18:24.424Z,2.67
2022-08-04T22:20:52.786Z,3.15
2022-08-04T22:23:25.335Z,2.80
2022-08-04T22:25:55.817Z,2.78
2022-08-04T22:28:25.479Z,3.57
2022-08-04T22:30:57.307Z,2.97
2022-08-04T22:33:54.615Z,2.92
2022-08-04T22:36:13.850Z,2.50
2022-08-04T22:38:48.623Z,2.70
2022-08-04T22:41:21.113Z,2.80
2022-08-04T22:43:55.088Z,2.85
2022-08-04T22:46:24.162Z,3.45
2022-08-04T22:48:52.402Z,2.90
2022-08-04T22:51:20.330Z,2.72
2022-08-04T22:53:50.591Z,2.67
2022-08-04T22:56:37.338Z,3.38
2022-08-04T22:59:09.949Z,2.65
2022-08-04T23:01:58.976Z,2.88
2022-08-04T23:04:27.629Z,2.75
2022-08-04T23:06:55.294Z,2.70
2022-08-04T23:09:27.043Z,2.42
2022-08-04T23:12:27.711Z,2.38
2022-08-04T23:14:58.849Z,2.53
2022-08-04T23:17:27.469Z,2.23
2022-08-04T23:19:57.982Z,2.80
2022-08-04T23:22:41.719Z,2.80
2022-08-04T23:25:15.139Z,2.80
2022-08-04T23:27:43.809Z,2.67
2022-08-04T23:30:16.070Z,2.65
2022-08-04T23:32:45.176Z,3.15
2022-08-04T23:35:14.981Z,2.50
2022-08-04T23:37:56.059Z,2.63
2022-08-04T23:40:32.625Z,2.50
2022-08-04T23:43:02.148Z,2.72
2022-08-04T23:46:04.449Z,2.70
2022-08-04T23:48:25.786Z,2.95
2022-08-04T23:50:53.806Z,2.63
2022-08-04T23:53:22.500Z,2.90
2022-08-04T23:55:50.532Z,3.00
2022-08-04T23:58:20.974Z,3.00
